Time;durP1;ratioP1;P1;durP2;ratioP2;P2;SDS_P1;SDS_P2;PMS_P1;PMS_P2;Temp;Humidity;BMP_temperature;BMP_pressure;BME280_temperature;BME280_humidity;BME280_pressure;Samples;Min_cycle;Max_cycle;Signal;HPM_P1;HPM_P2
2023/06/05 00:01:56;;;;;;;3.60;2.20;;;17.60;99.90;;;;;;5061944;28;20306;-56
2023/06/05 00:04:23;;;;;;;3.00;2.27;;;17.60;99.90;;;;;;5079192;28;20204;-59
2023/06/05 00:06:52;;;;;;;4.33;2.33;;;17.60;99.90;;;;;;5078235;28;20175;-57
2023/06/05 00:09:18;;;;;;;4.77;2.20;;;17.60;99.90;;;;;;5060761;28;20222;-59
2023/06/05 00:11:43;;;;;;;4.87;2.47;;;17.50;99.90;;;;;;5060425;28;20201;-59
2023/06/05 00:14:09;;;;;;;4.80;2.70;;;17.40;99.90;;;;;;5059570;28;20172;-59
2023/06/05 00:16:35;;;;;;;6.57;2.73;;;17.40;99.90;;;;;;5060247;28;20180;-59
2023/06/05 00:19:01;;;;;;;5.47;2.40;;;17.40;99.90;;;;;;5059655;28;20594;-59
2023/06/05 00:21:28;;;;;;;6.07;2.63;;;17.40;99.90;;;;;;5073964;28;20173;-58
2023/06/05 00:23:54;;;;;;;5.40;2.33;;;17.30;99.90;;;;;;5090852;28;20176;-59
2023/06/05 00:26:19;;;;;;;11.80;2.47;;;17.20;99.90;;;;;;5057900;28;20176;-59
2023/06/05 00:28:46;;;;;;;3.80;2.37;;;17.20;99.90;;;;;;5054156;28;20225;-59
2023/06/05 00:31:12;;;;;;;5.00;2.70;;;17.20;99.90;;;;;;5055583;28;20205;-59
2023/06/05 00:33:39;;;;;;;5.77;2.53;;;17.20;99.90;;;;;;5053653;28;20287;-59
2023/06/05 00:36:05;;;;;;;3.37;2.53;;;17.20;99.90;;;;;;5054384;28;20303;-57
2023/06/05 00:38:31;;;;;;;4.90;2.80;;;17.20;99.90;;;;;;5053585;28;20165;-57
2023/06/05 00:40:57;;;;;;;8.00;2.63;;;17.10;99.90;;;;;;5053016;28;20532;-59
2023/06/05 00:43:22;;;;;;;4.43;2.50;;;17.10;99.90;;;;;;5054362;28;20256;-59
2023/06/05 00:45:52;;;;;;;8.73;2.93;;;17.00;99.90;;;;;;5052836;28;20204;-58
2023/06/05 00:48:18;;;;;;;5.03;3.03;;;17.00;99.90;;;;;;5052552;28;20447;-60
2023/06/05 00:50:45;;;;;;;5.43;2.80;;;17.00;99.90;;;;;;5052706;28;20476;-60
2023/06/05 00:53:12;;;;;;;5.10;3.60;;;17.00;99.90;;;;;;5052425;28;20488;-60
2023/06/05 00:55:37;;;;;;;5.13;2.97;;;17.00;99.90;;;;;;5054911;28;20497;-57
2023/06/05 00:58:04;;;;;;;7.60;3.50;;;16.90;99.90;;;;;;5054020;28;20577;-60
2023/06/05 01:00:30;;;;;;;5.87;2.93;;;16.90;99.90;;;;;;5054741;28;20437;-60
2023/06/05 01:02:56;;;;;;;6.87;2.80;;;16.80;99.90;;;;;;5053496;28;20594;-60
2023/06/05 01:05:22;;;;;;;3.77;2.43;;;16.80;99.90;;;;;;5053480;28;20165;-60
2023/06/05 01:07:48;;;;;;;5.13;2.83;;;16.70;99.90;;;;;;5055957;28;20252;-60
2023/06/05 01:10:15;;;;;;;4.87;2.70;;;16.60;99.90;;;;;;5053975;28;20280;-58
2023/06/05 01:12:53;;;;;;;5.03;2.63;;;16.60;99.90;;;;;;5054185;28;20197;-60
2023/06/05 01:15:28;;;;;;;6.50;3.17;;;16.50;99.90;;;;;;5056021;28;20173;-58
2023/06/05 01:17:57;;;;;;;4.47;3.13;;;16.40;99.90;;;;;;5056372;28;20173;-61
2023/06/05 01:20:22;;;;;;;3.70;2.87;;;16.40;99.90;;;;;;5055176;28;20172;-60
2023/06/05 01:22:52;;;;;;;5.60;2.83;;;16.20;99.90;;;;;;5057452;28;20260;-59
2023/06/05 01:25:18;;;;;;;5.50;2.73;;;16.20;99.90;;;;;;5057111;28;20180;-58
2023/06/05 01:28:08;;;;;;;7.00;3.13;;;16.20;99.90;;;;;;5057602;28;20247;-59
2023/06/05 01:30:52;;;;;;;6.20;3.27;;;16.20;99.90;;;;;;5057701;28;20505;-59
2023/06/05 01:33:44;;;;;;;5.13;2.80;;;16.20;99.90;;;;;;5056441;28;20205;-59
2023/06/05 01:36:12;;;;;;;3.17;2.40;;;16.10;99.90;;;;;;5055692;28;20170;-59
2023/06/05 01:38:40;;;;;;;5.77;2.80;;;16.20;99.90;;;;;;5057361;28;20709;-60
2023/06/05 01:41:08;;;;;;;4.67;2.77;;;16.10;99.90;;;;;;5057823;28;20184;-58
2023/06/05 01:43:35;;;;;;;5.00;3.40;;;16.10;99.90;;;;;;5056503;28;20173;-60
2023/06/05 01:46:01;;;;;;;6.20;3.70;;;16.00;99.90;;;;;;5056733;28;20516;-59
2023/06/05 01:48:30;;;;;;;6.97;3.50;;;16.00;99.90;;;;;;5056753;28;20166;-60
2023/06/05 01:50:58;;;;;;;6.83;3.17;;;15.90;99.90;;;;;;5057631;28;20677;-59
2023/06/05 01:53:24;;;;;;;5.63;2.70;;;15.90;99.90;;;;;;5059075;28;20173;-60
2023/06/05 01:55:57;;;;;;;6.23;2.90;;;15.80;99.90;;;;;;5058427;28;20176;-59
2023/06/05 01:58:23;;;;;;;6.13;2.97;;;15.80;99.90;;;;;;5057451;28;20165;-60
2023/06/05 02:00:49;;;;;;;4.80;2.97;;;15.70;99.90;;;;;;5056928;28;20239;-60
2023/06/05 02:03:17;;;;;;;7.17;3.80;;;15.80;99.90;;;;;;5057187;28;20566;-60
2023/06/05 02:05:44;;;;;;;8.20;3.30;;;15.60;99.90;;;;;;5056778;28;20181;-60
2023/06/05 02:08:10;;;;;;;7.83;3.47;;;15.60;99.90;;;;;;5056685;28;20185;-60
2023/06/05 02:10:42;;;;;;;5.40;3.27;;;15.60;99.90;;;;;;5057182;28;20169;-60
2023/06/05 02:13:08;;;;;;;5.40;3.60;;;15.50;99.90;;;;;;5056806;28;20201;-60
2023/06/05 02:15:34;;;;;;;5.23;3.23;;;15.50;99.90;;;;;;5057572;28;20180;-61
2023/06/05 02:18:00;;;;;;;5.03;2.87;;;15.40;99.90;;;;;;5056996;28;20220;-60
2023/06/05 02:20:27;;;;;;;4.57;2.87;;;15.50;99.90;;;;;;5056462;28;20260;-60
2023/06/05 02:22:54;;;;;;;5.20;3.33;;;15.40;99.90;;;;;;5056826;28;20537;-60
2023/06/05 02:25:21;;;;;;;5.00;3.30;;;15.40;99.90;;;;;;5055885;28;20227;-60
2023/06/05 02:27:47;;;;;;;4.43;2.97;;;15.30;99.90;;;;;;5055665;28;20661;-60
2023/06/05 02:30:13;;;;;;;5.17;3.73;;;15.30;99.90;;;;;;5075070;28;20303;-60
2023/06/05 02:32:43;;;;;;;6.67;4.23;;;15.30;99.90;;;;;;5075841;28;20192;-60
2023/06/05 02:35:10;;;;;;;7.17;3.83;;;15.20;99.90;;;;;;5076296;28;20174;-59
2023/06/05 02:37:41;;;;;;;5.60;3.17;;;15.10;99.90;;;;;;5058587;28;20221;-60
2023/06/05 02:40:08;;;;;;;10.77;4.07;;;15.10;99.90;;;;;;5076127;28;20609;-60
2023/06/05 02:42:35;;;;;;;6.67;3.80;;;15.00;99.90;;;;;;5059047;28;20168;-60
2023/06/05 02:45:20;;;;;;;4.47;3.23;;;15.00;99.90;;;;;;5063637;28;20165;-60
2023/06/05 02:47:47;;;;;;;5.63;3.83;;;15.00;99.90;;;;;;5080616;28;20204;-60
2023/06/05 02:50:13;;;;;;;10.70;4.20;;;14.90;99.90;;;;;;5063496;28;20176;-60
2023/06/05 02:52:39;;;;;;;5.10;3.67;;;14.90;99.90;;;;;;5063454;28;20204;-60
2023/06/05 02:55:07;;;;;;;7.87;4.03;;;15.00;99.90;;;;;;5080771;28;20624;-60
2023/06/05 02:57:35;;;;;;;7.50;4.13;;;14.90;99.90;;;;;;5080762;28;20161;-59
2023/06/05 03:00:07;;;;;;;7.47;3.87;;;14.90;99.90;;;;;;5063370;28;20165;-59
2023/06/05 03:02:36;;;;;;;6.33;4.30;;;14.90;99.90;;;;;;5096901;28;20177;-60
2023/06/05 03:05:03;;;;;;;7.13;3.83;;;14.90;99.90;;;;;;5079996;28;20592;-60
2023/06/05 03:07:29;;;;;;;8.27;4.10;;;14.90;99.90;;;;;;5063024;28;20176;-62
2023/06/05 03:09:55;;;;;;;7.67;4.60;;;14.80;99.90;;;;;;5062784;28;20169;-60
2023/06/05 03:12:21;;;;;;;9.60;4.27;;;14.80;99.90;;;;;;5059960;28;20208;-60
2023/06/05 03:14:46;;;;;;;4.80;3.80;;;14.80;99.90;;;;;;5058262;28;20200;-59
2023/06/05 03:17:12;;;;;;;6.10;4.23;;;14.80;99.90;;;;;;5057990;28;20451;-59
2023/06/05 03:19:38;;;;;;;5.93;3.50;;;14.80;99.90;;;;;;5076047;28;20169;-59
2023/06/05 03:22:05;;;;;;;6.67;4.30;;;14.70;99.90;;;;;;5061284;28;20226;-59
2023/06/05 03:24:30;;;;;;;6.33;4.20;;;14.70;99.90;;;;;;5061702;28;20191;-60
2023/06/05 03:26:56;;;;;;;6.53;4.03;;;14.70;99.90;;;;;;5061347;28;20172;-60
2023/06/05 03:29:22;;;;;;;6.43;4.27;;;14.60;99.90;;;;;;5061679;28;20240;-60
2023/06/05 03:31:48;;;;;;;6.70;4.60;;;14.60;99.90;;;;;;5060982;28;20192;-60
2023/06/05 03:34:14;;;;;;;9.23;4.60;;;14.60;99.90;;;;;;5061958;28;20200;-60
2023/06/05 03:36:39;;;;;;;10.40;4.30;;;14.60;99.90;;;;;;5079004;28;20165;-60
2023/06/05 03:39:06;;;;;;;8.70;4.57;;;14.60;99.90;;;;;;5061573;28;20194;-60
2023/06/05 03:41:32;;;;;;;8.57;4.70;;;14.60;99.90;;;;;;5062123;28;20165;-59
2023/06/05 03:43:58;;;;;;;7.77;4.40;;;14.50;99.90;;;;;;5061758;28;20510;-60
2023/06/05 03:46:24;;;;;;;11.63;4.87;;;14.50;99.90;;;;;;5062210;28;20173;-60
2023/06/05 03:49:10;;;;;;;7.50;4.10;;;14.40;99.90;;;;;;5062861;28;20185;-62
2023/06/05 03:51:36;;;;;;;7.73;4.47;;;14.40;99.90;;;;;;5061697;28;20200;-60
2023/06/05 03:54:03;;;;;;;7.87;4.77;;;14.40;99.90;;;;;;5061028;28;20476;-60
2023/06/05 03:56:33;;;;;;;6.07;4.73;;;14.40;99.90;;;;;;5061207;28;20204;-60
2023/06/05 03:59:08;;;;;;;6.00;4.40;;;14.40;99.90;;;;;;5061116;28;20172;-61
2023/06/05 04:01:37;;;;;;;8.37;5.83;;;14.40;99.90;;;;;;5078311;28;20172;-60
2023/06/05 04:04:07;;;;;;;5.93;4.33;;;14.40;99.90;;;;;;5061435;28;20180;-60
2023/06/05 04:06:33;;;;;;;6.37;4.83;;;14.40;99.90;;;;;;5060853;28;20177;-60
2023/06/05 04:08:59;;;;;;;6.60;4.83;;;14.40;99.90;;;;;;5060387;28;20176;-60
2023/06/05 04:11:26;;;;;;;7.20;5.07;;;14.40;99.90;;;;;;5060807;28;20262;-60
2023/06/05 04:13:56;;;;;;;5.70;4.53;;;14.40;99.90;;;;;;5060669;28;20165;-60
2023/06/05 04:16:22;;;;;;;7.03;4.97;;;14.40;99.90;;;;;;5059833;28;20165;-61
2023/06/05 04:18:47;;;;;;;6.80;5.00;;;14.30;99.90;;;;;;5058385;28;20169;-60
2023/06/05 04:21:13;;;;;;;7.47;5.20;;;14.30;99.90;;;;;;5057181;28;20212;-60
2023/06/05 04:23:39;;;;;;;8.53;5.00;;;14.30;99.90;;;;;;5057598;28;20165;-60
2023/06/05 04:26:05;;;;;;;9.90;5.40;;;14.30;99.90;;;;;;5057250;28;20169;-60
2023/06/05 04:28:31;;;;;;;7.40;5.20;;;14.40;99.90;;;;;;5091697;28;20313;-60
2023/06/05 04:30:57;;;;;;;9.20;5.27;;;14.30;99.90;;;;;;5058383;28;20212;-60
2023/06/05 04:33:23;;;;;;;7.83;5.63;;;14.30;99.90;;;;;;5091973;28;20208;-61
2023/06/05 04:35:49;;;;;;;5.63;4.57;;;14.30;99.90;;;;;;5076782;28;20230;-60
2023/06/05 04:38:20;;;;;;;8.30;5.20;;;14.30;99.90;;;;;;5059267;28;20259;-60
2023/06/05 04:40:48;;;;;;;10.43;5.47;;;14.30;99.90;;;;;;5059454;28;20167;-60
2023/06/05 04:43:14;;;;;;;9.67;5.00;;;14.30;99.90;;;;;;5076003;28;20169;-59
2023/06/05 04:45:41;;;;;;;7.83;5.37;;;14.30;99.90;;;;;;5059448;28;20199;-60
2023/06/05 04:48:07;;;;;;;7.77;4.90;;;14.30;99.90;;;;;;5092216;28;20173;-60
2023/06/05 04:50:33;;;;;;;7.67;5.23;;;14.30;99.90;;;;;;5058461;28;20168;-59
2023/06/05 04:52:59;;;;;;;5.97;4.60;;;14.40;99.90;;;;;;5075121;28;20180;-59
2023/06/05 04:55:25;;;;;;;8.47;5.43;;;14.40;99.90;;;;;;5057757;28;20165;-60
2023/06/05 04:57:53;;;;;;;10.17;5.57;;;14.40;99.90;;;;;;5091507;28;20222;-60
2023/06/05 05:00:19;;;;;;;8.47;5.73;;;14.40;99.90;;;;;;5057097;28;20168;-60
2023/06/05 05:02:52;;;;;;;9.93;5.00;;;14.40;99.90;;;;;;5056766;28;20176;-62
2023/06/05 05:05:18;;;;;;;9.00;5.17;;;14.40;99.90;;;;;;5058204;28;20461;-60
2023/06/05 05:07:43;;;;;;;12.83;6.07;;;14.40;99.90;;;;;;5057226;28;20245;-58
2023/06/05 05:10:10;;;;;;;7.60;4.43;;;14.40;99.90;;;;;;5074128;28;20215;-60
2023/06/05 05:12:37;;;;;;;11.53;5.53;;;14.40;99.90;;;;;;5070373;28;20208;-60
2023/06/05 05:15:04;;;;;;;6.83;4.73;;;14.50;99.90;;;;;;5046417;28;20165;-60
2023/06/05 05:17:31;;;;;;;8.27;5.53;;;14.50;99.90;;;;;;5045378;28;20252;-60
2023/06/05 05:19:57;;;;;;;9.23;5.20;;;14.60;99.90;;;;;;5047218;28;20224;-60
2023/06/05 05:22:23;;;;;;;7.43;5.13;;;14.50;99.90;;;;;;5071992;28;20251;-58
2023/06/05 05:24:49;;;;;;;9.27;5.33;;;14.60;99.90;;;;;;5054783;28;20275;-59
2023/06/05 05:27:14;;;;;;;9.17;5.67;;;14.60;99.90;;;;;;5054993;28;20175;-60
2023/06/05 05:29:40;;;;;;;8.43;5.43;;;14.60;99.90;;;;;;5052031;28;20221;-60
2023/06/05 05:32:06;;;;;;;7.43;4.83;;;14.60;99.90;;;;;;5053013;28;20193;-58
2023/06/05 05:34:33;;;;;;;8.50;5.13;;;14.60;99.90;;;;;;5052984;28;20729;-60
2023/06/05 05:36:59;;;;;;;9.03;5.43;;;14.60;99.90;;;;;;5053636;28;20256;-60
2023/06/05 05:39:25;;;;;;;5.43;4.03;;;14.70;99.90;;;;;;5050532;28;20188;-59
2023/06/05 05:41:58;;;;;;;10.97;6.03;;;14.70;99.90;;;;;;5052153;28;20162;-60
2023/06/05 05:44:24;;;;;;;10.33;5.17;;;14.70;99.90;;;;;;5052663;28;20169;-62
2023/06/05 05:46:50;;;;;;;11.27;5.93;;;14.70;99.90;;;;;;5051877;28;20184;-60
2023/06/05 05:49:15;;;;;;;6.13;4.10;;;14.70;99.90;;;;;;5052242;28;20709;-60
2023/06/05 05:51:41;;;;;;;6.70;4.23;;;14.70;99.90;;;;;;5052218;28;20228;-60
2023/06/05 05:54:07;;;;;;;6.10;4.47;;;14.80;99.90;;;;;;5051911;28;20181;-60
2023/06/05 05:56:34;;;;;;;6.20;4.27;;;14.80;99.90;;;;;;5052189;28;20219;-59
2023/06/05 05:58:59;;;;;;;4.97;4.30;;;14.80;99.90;;;;;;5051928;28;20153;-60
2023/06/05 06:01:25;;;;;;;6.10;4.33;;;14.80;99.90;;;;;;5049973;28;20180;-59
2023/06/05 06:03:52;;;;;;;5.30;4.40;;;14.80;99.90;;;;;;5047721;28;20174;-60
2023/06/05 06:06:18;;;;;;;7.03;4.90;;;14.90;99.90;;;;;;5047022;28;20626;-57
2023/06/05 06:08:43;;;;;;;7.47;4.40;;;14.90;99.90;;;;;;5045501;28;20165;-61
2023/06/05 06:11:09;;;;;;;7.20;4.30;;;14.90;99.90;;;;;;5044428;28;20174;-60
2023/06/05 06:13:35;;;;;;;10.63;5.23;;;14.90;99.90;;;;;;5044270;28;20318;-60
2023/06/05 06:16:04;;;;;;;6.83;3.60;;;15.00;99.90;;;;;;5043685;28;20166;-60
2023/06/05 06:18:30;;;;;;;8.47;5.00;;;15.00;99.90;;;;;;5044176;28;20646;-60
2023/06/05 06:20:56;;;;;;;7.37;4.40;;;15.00;99.90;;;;;;5044587;28;20177;-60
2023/06/05 06:23:22;;;;;;;7.93;4.10;;;15.00;99.90;;;;;;5047101;28;20169;-60
2023/06/05 06:25:48;;;;;;;4.83;3.50;;;15.10;99.90;;;;;;5047492;28;20226;-60
2023/06/05 06:28:15;;;;;;;4.57;3.33;;;15.10;99.90;;;;;;5050108;28;20240;-60
2023/06/05 06:30:42;;;;;;;5.53;4.30;;;15.10;99.90;;;;;;5085042;28;20168;-59
2023/06/05 06:33:07;;;;;;;8.03;4.80;;;15.10;99.90;;;;;;5069470;28;20181;-61
2023/06/05 06:35:33;;;;;;;6.93;3.50;;;15.10;99.90;;;;;;5069492;28;20169;-61
2023/06/05 06:37:59;;;;;;;6.90;4.03;;;15.20;99.90;;;;;;5050327;28;20165;-61
2023/06/05 06:40:24;;;;;;;6.40;3.87;;;15.20;99.90;;;;;;5051877;28;20161;-60
2023/06/05 06:42:50;;;;;;;7.37;3.63;;;15.30;99.90;;;;;;5051934;28;20175;-61
2023/06/05 06:45:17;;;;;;;3.40;2.90;;;15.20;99.90;;;;;;5052425;28;20165;-59
2023/06/05 06:47:43;;;;;;;3.63;3.13;;;15.30;99.90;;;;;;5052101;28;20279;-60
2023/06/05 06:50:09;;;;;;;5.13;3.47;;;15.30;99.90;;;;;;5052692;28;20169;-60
2023/06/05 06:52:36;;;;;;;5.40;3.37;;;15.30;99.90;;;;;;5053674;28;20200;-60
2023/06/05 06:55:01;;;;;;;4.17;3.27;;;15.30;99.90;;;;;;5070040;28;20504;-61
2023/06/05 06:57:27;;;;;;;8.83;4.50;;;15.40;99.90;;;;;;5069251;28;20302;-60
2023/06/05 06:59:55;;;;;;;4.87;3.37;;;15.40;99.90;;;;;;5083407;28;20180;-60
2023/06/05 07:02:24;;;;;;;6.03;2.67;;;15.40;99.90;;;;;;5047719;28;20173;-60
2023/06/05 07:04:49;;;;;;;3.80;2.90;;;15.40;99.90;;;;;;5047813;28;20237;-60
2023/06/05 07:07:17;;;;;;;5.33;3.07;;;15.50;99.90;;;;;;5046711;28;20177;-60
2023/06/05 07:09:44;;;;;;;6.17;2.67;;;15.50;99.90;;;;;;5044761;28;20184;-60
2023/06/05 07:12:12;;;;;;;3.90;2.60;;;15.50;99.90;;;;;;5041066;28;20613;-60
2023/06/05 07:14:38;;;;;;;4.87;2.90;;;15.60;99.90;;;;;;5038701;28;20169;-60
2023/06/05 07:17:05;;;;;;;6.43;3.37;;;15.60;99.90;;;;;;5057158;28;20295;-59
2023/06/05 07:19:38;;;;;;;5.33;2.83;;;15.60;99.90;;;;;;5036635;28;20318;-60
2023/06/05 07:22:05;;;;;;;7.07;3.17;;;15.60;99.90;;;;;;5046425;28;20254;-60
2023/06/05 07:24:32;;;;;;;4.37;3.20;;;15.70;99.90;;;;;;5050306;28;20172;-60
2023/06/05 07:27:00;;;;;;;4.70;2.60;;;15.70;99.90;;;;;;5067192;28;20172;-60
2023/06/05 07:29:26;;;;;;;3.50;2.67;;;15.70;99.90;;;;;;5050280;28;20255;-60
2023/06/05 07:31:54;;;;;;;5.97;2.67;;;15.70;99.90;;;;;;5051408;28;20291;-60
2023/06/05 07:34:21;;;;;;;6.40;2.80;;;15.80;99.90;;;;;;5052157;28;20165;-60
2023/06/05 07:36:48;;;;;;;3.63;2.60;;;15.80;99.90;;;;;;5052467;28;20250;-59
2023/06/05 07:39:17;;;;;;;3.67;2.90;;;15.80;99.90;;;;;;5052537;28;20172;-60
2023/06/05 07:41:43;;;;;;;5.73;3.30;;;15.90;99.90;;;;;;5050429;28;20263;-60
2023/06/05 07:44:14;;;;;;;3.70;2.73;;;15.90;99.90;;;;;;5048152;28;20169;-61
2023/06/05 07:46:40;;;;;;;5.27;3.17;;;15.90;99.90;;;;;;5065836;28;20171;-61
2023/06/05 07:49:06;;;;;;;6.13;3.00;;;15.90;99.90;;;;;;5048467;28;20272;-60
2023/06/05 07:51:37;;;;;;;8.20;2.83;;;16.00;99.90;;;;;;5047131;28;20295;-60
2023/06/05 07:54:07;;;;;;;4.37;2.23;;;16.00;99.90;;;;;;5063238;28;20919;-59
2023/06/05 07:56:33;;;;;;;3.27;2.60;;;16.10;99.90;;;;;;5044786;28;20279;-60
2023/06/05 07:59:00;;;;;;;4.73;2.43;;;16.10;99.90;;;;;;5063557;28;20165;-60
2023/06/05 08:01:31;;;;;;;5.63;2.53;;;16.10;99.90;;;;;;5046858;28;20169;-60
2023/06/05 08:03:57;;;;;;;5.97;2.10;;;16.10;99.90;;;;;;5047911;28;20259;-60
2023/06/05 08:06:27;;;;;;;4.43;2.30;;;16.20;99.90;;;;;;5049184;28;20183;-60
2023/06/05 08:08:52;;;;;;;6.47;2.77;;;16.20;99.90;;;;;;5049179;28;20200;-59
2023/06/05 08:11:18;;;;;;;3.10;2.30;;;16.20;99.90;;;;;;5065460;28;20188;-60
2023/06/05 08:13:45;;;;;;;3.40;1.93;;;16.30;99.90;;;;;;5065296;28;20165;-59
2023/06/05 08:16:10;;;;;;;2.97;2.00;;;16.30;99.90;;;;;;5040985;28;20161;-60
2023/06/05 08:18:36;;;;;;;6.10;2.80;;;16.30;99.90;;;;;;5073711;28;20345;-60
2023/06/05 08:21:03;;;;;;;4.77;2.10;;;16.40;99.90;;;;;;5043574;28;20180;-60
2023/06/05 08:23:29;;;;;;;3.30;2.30;;;16.40;99.90;;;;;;5049922;28;20234;-60
2023/06/05 08:25:55;;;;;;;7.73;3.17;;;16.40;99.90;;;;;;5083425;28;20169;-60
2023/06/05 08:28:21;;;;;;;3.53;2.20;;;16.50;99.90;;;;;;5044607;28;20236;-60
2023/06/05 08:30:48;;;;;;;7.73;1.97;;;16.50;99.90;;;;;;5045689;28;20173;-60
2023/06/05 08:33:14;;;;;;;4.73;2.73;;;16.60;99.90;;;;;;5045276;28;20224;-61
2023/06/05 08:35:41;;;;;;;5.97;3.13;;;16.60;99.90;;;;;;5044980;28;20176;-60
2023/06/05 08:38:07;;;;;;;4.57;2.40;;;16.70;99.90;;;;;;5044958;28;20169;-60
2023/06/05 08:40:33;;;;;;;4.83;2.63;;;16.70;99.90;;;;;;5044236;28;20172;-59
2023/06/05 08:43:01;;;;;;;3.83;2.57;;;16.80;99.90;;;;;;5045566;28;20170;-60
2023/06/05 08:45:26;;;;;;;6.40;2.90;;;16.80;99.90;;;;;;5043415;28;20191;-60
2023/06/05 08:47:55;;;;;;;2.63;2.10;;;16.80;99.90;;;;;;5044721;28;20688;-59
2023/06/05 08:50:23;;;;;;;3.90;2.83;;;16.80;99.90;;;;;;5041479;28;20243;-59
2023/06/05 08:52:51;;;;;;;3.10;2.50;;;16.90;99.90;;;;;;5044418;28;20200;-60
2023/06/05 08:55:17;;;;;;;4.27;2.10;;;16.90;99.90;;;;;;5044377;28;20672;-60
2023/06/05 08:57:44;;;;;;;7.17;2.50;;;16.90;99.90;;;;;;5042451;28;20220;-60
2023/06/05 09:00:12;;;;;;;4.70;2.27;;;16.90;99.90;;;;;;5043003;28;20244;-59
2023/06/05 09:02:47;;;;;;;4.33;2.63;;;17.00;99.90;;;;;;5043136;28;20208;-60
2023/06/05 09:05:17;;;;;;;6.83;2.47;;;17.10;99.90;;;;;;5040830;28;20789;-60
2023/06/05 09:07:43;;;;;;;4.23;2.47;;;17.10;99.90;;;;;;5055573;28;20644;-60
2023/06/05 09:10:28;;;;;;;4.13;2.53;;;17.10;99.90;;;;;;5038957;28;20205;-60
2023/06/05 09:12:55;;;;;;;5.33;2.30;;;17.30;99.90;;;;;;5058061;28;20209;-58
2023/06/05 09:15:26;;;;;;;2.70;1.97;;;17.30;99.90;;;;;;5043781;28;20158;-60
2023/06/05 09:18:12;;;;;;;7.67;2.07;;;17.40;99.90;;;;;;5042632;28;20168;-60
2023/06/05 09:20:48;;;;;;;3.77;2.73;;;17.40;99.90;;;;;;5059433;28;20222;-60
2023/06/05 09:23:29;;;;;;;2.70;1.97;;;17.60;99.90;;;;;;5043566;28;20204;-60
2023/06/05 09:25:58;;;;;;;3.33;2.53;;;17.60;99.90;;;;;;5042872;28;20161;-60
2023/06/05 09:28:25;;;;;;;4.97;2.60;;;17.60;99.90;;;;;;5043748;28;20223;-59
2023/06/05 09:31:08;;;;;;;4.13;2.27;;;17.60;99.90;;;;;;5046494;28;20205;-59
2023/06/05 09:33:35;;;;;;;3.27;1.73;;;17.60;99.90;;;;;;5046916;28;20197;-60
2023/06/05 09:36:12;;;;;;;3.80;1.80;;;17.60;99.90;;;;;;5047293;28;20188;-60
2023/06/05 09:38:41;;;;;;;3.03;1.70;;;17.70;99.90;;;;;;5047044;28;20176;-59
2023/06/05 09:41:09;;;;;;;4.77;2.03;;;17.70;99.90;;;;;;5047194;28;20227;-60
2023/06/05 09:43:37;;;;;;;2.60;1.83;;;17.70;99.90;;;;;;5047389;28;20204;-60
2023/06/05 09:46:10;;;;;;;4.37;2.17;;;17.80;99.90;;;;;;5046853;28;20177;-60
2023/06/05 09:48:36;;;;;;;3.40;2.37;;;17.80;99.90;;;;;;5046778;28;20207;-59
2023/06/05 09:51:14;;;;;;;2.63;1.83;;;17.90;99.90;;;;;;5047877;28;20185;-59
2023/06/05 09:53:49;;;;;;;5.63;2.57;;;17.90;99.90;;;;;;5047907;28;20218;-59
2023/06/05 09:56:17;;;;;;;3.80;2.40;;;18.00;99.90;;;;;;5031031;28;20314;-59
2023/06/05 09:58:48;;;;;;;2.43;1.93;;;18.00;99.90;;;;;;5047237;28;20176;-58
2023/06/05 10:01:19;;;;;;;3.23;1.77;;;18.00;99.90;;;;;;5048210;28;20168;-59
2023/06/05 10:03:51;;;;;;;4.13;1.90;;;18.10;99.90;;;;;;5049401;28;20758;-59
2023/06/05 10:06:23;;;;;;;4.80;1.90;;;18.10;99.90;;;;;;5049470;28;20170;-58
2023/06/05 10:08:52;;;;;;;2.10;1.70;;;18.20;99.90;;;;;;5049205;28;20464;-58
2023/06/05 10:11:20;;;;;;;6.53;2.03;;;18.30;99.90;;;;;;5047849;28;20338;-59
2023/06/05 10:13:48;;;;;;;4.53;1.77;;;18.30;99.90;;;;;;5047390;28;20176;-57
2023/06/05 10:16:16;;;;;;;2.10;1.60;;;18.40;99.90;;;;;;5047933;28;20264;-58
2023/06/05 10:18:41;;;;;;;2.00;1.50;;;18.40;99.90;;;;;;5029218;28;20264;-58
2023/06/05 10:21:08;;;;;;;3.10;2.00;;;18.50;99.90;;;;;;5045665;28;20260;-59
2023/06/05 10:23:35;;;;;;;2.17;1.60;;;18.50;99.90;;;;;;5045711;28;20182;-59
2023/06/05 10:26:15;;;;;;;4.27;1.70;;;18.60;99.90;;;;;;5044660;28;20160;-59
2023/06/05 10:29:19;;;;;;;5.53;1.80;;;18.60;99.90;;;;;;5032945;28;20232;-58
2023/06/05 10:31:51;;;;;;;4.43;1.60;;;18.60;99.90;;;;;;5063443;28;20257;-58
2023/06/05 10:34:28;;;;;;;3.00;1.60;;;18.70;99.90;;;;;;5061974;28;20172;-59
2023/06/05 10:37:24;;;;;;;3.30;2.00;;;18.70;99.90;;;;;;5059885;28;20169;-58
2023/06/05 10:39:53;;;;;;;3.73;1.83;;;18.80;99.90;;;;;;5060881;28;20263;-61
2023/06/05 10:42:26;;;;;;;3.10;2.03;;;18.90;99.90;;;;;;5062231;28;20177;-58
2023/06/05 10:44:52;;;;;;;3.20;1.90;;;18.90;99.90;;;;;;5061504;28;20176;-59
2023/06/05 10:47:39;;;;;;;2.40;1.97;;;19.00;99.90;;;;;;5044106;28;20557;-59
2023/06/05 10:50:21;;;;;;;6.03;1.67;;;19.00;99.90;;;;;;5060908;28;20205;-59
2023/06/05 10:52:49;;;;;;;2.53;1.47;;;19.00;99.90;;;;;;5061610;28;20228;-59
2023/06/05 10:55:15;;;;;;;2.67;1.80;;;19.10;99.90;;;;;;5062888;28;20161;-59
2023/06/05 10:58:15;;;;;;;8.40;2.10;;;19.10;99.90;;;;;;5065735;28;20167;-59
2023/06/05 11:01:27;;;;;;;1.77;1.50;;;19.20;99.90;;;;;;5065903;28;20160;-59
2023/06/05 11:03:59;;;;;;;3.13;1.90;;;19.30;99.90;;;;;;5059823;28;20187;-59
2023/06/05 11:06:25;;;;;;;2.97;1.60;;;19.40;99.90;;;;;;5066836;28;20583;-59
2023/06/05 11:09:09;;;;;;;2.43;1.70;;;19.40;99.90;;;;;;5066127;28;20169;-58
2023/06/05 11:11:53;;;;;;;4.20;1.73;;;19.50;99.90;;;;;;5066018;28;20267;-59
2023/06/05 11:14:20;;;;;;;1.87;1.70;;;19.50;99.90;;;;;;5079690;28;20256;-60
2023/06/05 11:16:48;;;;;;;3.13;1.67;;;19.60;99.90;;;;;;5079538;28;20772;-59
2023/06/05 11:19:23;;;;;;;3.13;2.10;;;19.70;99.90;;;;;;5066217;28;20601;-57
2023/06/05 11:22:11;;;;;;;4.20;1.80;;;19.80;99.90;;;;;;5068221;28;20265;-58
2023/06/05 11:24:38;;;;;;;2.63;1.47;;;19.80;99.90;;;;;;5069279;28;20161;-59
2023/06/05 11:27:08;;;;;;;4.00;1.60;;;19.90;99.90;;;;;;5068821;28;20188;-59
2023/06/05 11:29:35;;;;;;;2.63;1.60;;;19.90;99.90;;;;;;5068982;28;20232;-57
2023/06/05 11:32:11;;;;;;;3.10;1.87;;;20.00;99.90;;;;;;5070676;28;20208;-59
2023/06/05 11:34:38;;;;;;;5.73;2.00;;;20.00;99.90;;;;;;5050792;28;20169;-59
2023/06/05 11:37:21;;;;;;;2.80;1.73;;;20.10;99.90;;;;;;5065903;28;20256;-59
2023/06/05 11:39:47;;;;;;;2.13;1.73;;;20.10;99.90;;;;;;5067155;28;20187;-59
2023/06/05 11:42:25;;;;;;;3.50;2.10;;;20.20;99.90;;;;;;5065219;28;20183;-59
2023/06/05 11:44:51;;;;;;;3.33;1.90;;;20.30;99.90;;;;;;5064812;28;20204;-59
2023/06/05 11:47:25;;;;;;;2.97;1.80;;;20.40;99.90;;;;;;5064720;28;20780;-59
2023/06/05 11:49:52;;;;;;;3.73;1.93;;;20.60;99.90;;;;;;5065733;28;20172;-59
2023/06/05 11:52:22;;;;;;;2.87;1.73;;;20.70;99.90;;;;;;5065831;28;20201;-59
2023/06/05 11:55:05;;;;;;;2.67;1.73;;;20.90;99.90;;;;;;5066826;28;20161;-57
2023/06/05 11:57:41;;;;;;;2.63;1.53;;;21.00;99.90;;;;;;5068267;28;20161;-59
2023/06/05 12:00:07;;;;;;;5.93;1.80;;;21.20;99.90;;;;;;5067300;28;20172;-60
2023/06/05 12:02:36;;;;;;;2.37;1.73;;;21.40;99.90;;;;;;5066642;28;20176;-59
2023/06/05 12:05:02;;;;;;;3.00;1.67;;;21.50;99.90;;;;;;5065606;28;20184;-59
2023/06/05 12:07:31;;;;;;;2.00;1.50;;;21.60;99.90;;;;;;5065481;28;20778;-59
2023/06/05 12:10:00;;;;;;;2.87;1.80;;;21.70;99.90;;;;;;5067182;28;20177;-59
2023/06/05 12:12:26;;;;;;;2.40;1.77;;;21.90;99.90;;;;;;5067776;28;20299;-60
2023/06/05 12:14:55;;;;;;;3.00;1.70;;;22.00;99.90;;;;;;5068195;28;20518;-58
2023/06/05 12:17:22;;;;;;;2.73;1.83;;;22.10;99.90;;;;;;5067839;28;20326;-59
2023/06/05 12:19:55;;;;;;;1.50;1.40;;;22.20;99.90;;;;;;5066730;28;20165;-59
2023/06/05 12:22:22;;;;;;;4.03;1.83;;;22.10;99.90;;;;;;5063951;28;20265;-59
2023/06/05 12:24:48;;;;;;;3.50;1.80;;;22.20;99.90;;;;;;5063822;28;20177;-60
2023/06/05 12:27:15;;;;;;;3.10;1.60;;;22.30;99.90;;;;;;5065867;28;20641;-60
2023/06/05 12:29:54;;;;;;;2.17;1.60;;;22.40;99.90;;;;;;5066958;28;20243;-60
2023/06/05 12:32:24;;;;;;;3.13;1.70;;;22.50;99.90;;;;;;5063953;28;20238;-59
2023/06/05 12:34:52;;;;;;;2.23;1.50;;;22.60;99.90;;;;;;5063794;28;20204;-60
2023/06/05 12:37:23;;;;;;;4.50;2.37;;;22.70;99.90;;;;;;5063342;28;20181;-60
2023/06/05 12:39:49;;;;;;;2.20;1.80;;;22.80;99.90;;;;;;5060766;28;20222;-59
2023/06/05 12:42:15;;;;;;;3.20;2.03;;;22.90;99.90;;;;;;5059411;28;20542;-60
2023/06/05 12:44:40;;;;;;;4.43;2.30;;;23.00;99.90;;;;;;5059807;28;20176;-58
2023/06/05 12:47:08;;;;;;;3.13;1.90;;;23.20;99.90;;;;;;5061613;28;20176;-60
2023/06/05 12:49:33;;;;;;;2.23;1.73;;;23.30;99.90;;;;;;5078478;28;20172;-60
2023/06/05 12:52:01;;;;;;;1.67;1.57;;;23.50;99.90;;;;;;5064297;28;20215;-59
2023/06/05 12:54:28;;;;;;;5.43;1.40;;;23.60;99.90;;;;;;5065197;28;20161;-58